Minocqua, WI

9:30 PM CDT on October 01, 2014 (GMT -0500)
Lakeland-Lee Memorial | Change Station
CLOSE
Current Station
Airport
Location: Arbor Vitae,
Elevation: 1627 ft
Nearby Weather Stations

Elev 1627 ft 45.93 °N, 89.73 °W | Updated 15 minutes ago

Overcast
Overcast
57 °F
Feels Like 57 °F
N
5
Wind Variable Wind from South

Today
High -- | Low -- °F
--% Chance of Precip.
Yesterday
High -- | Low -- °F
Precip. -- in
6:57 AM 6:39 PM
First Quarter, 53% visible
Pressure 29.87 in
Visibility 5.0 miles
Clouds Overcast 1900 ft
Dew Point 55 °F
Humidity 94%
Rainfall 0.10 in
Snow Depth Not available.
UV 0 out of 12
Pollen 1.10 out of 12
Air Quality Not available.
Flu Activity Not available.
METAR KARV 020215Z AUTO 18004KT 5SM BR OVC019 14/13 A2987 RMK AO2 T01380128

More Conditions Fewer Conditions

Pressure 29.87 in
Visibility 5.0 miles
Clouds Overcast 1900 ft
Dew Point 55 °F
Humidity 94%
Rainfall 0.10 in
Snow Depth Not available.
UV 0 out of 12
Pollen 1.10 out of 12
Air Quality Not available.
Flu Activity Not available.
METAR KARV 020215Z AUTO 18004KT 5SM BR OVC019 14/13 A2987 RMK AO2 T01380128

More Conditions Fewer Conditions

10-Day Weather Forecast

Almanac

Astronomy

Oct. 01, 2014 Rise Set
Actual Time 6:57 AM CDT 6:39 PM CDT
Civil Twilight 6:27 AM CDT 7:08 PM CDT
Nautical Twilight 5:53 AM CDT 7:43 PM CDT
Astronomical Twilight 5:17 AM CDT 8:18 PM CDT
Moon 2:11 PM CDT (10/1) 11:58 PM CDT (10/1)
Length of Visible Light 12h 41m
Length of Day
11h 41m
Tomorrow will be 3m 12s shorter.
First Quarter, 53% of the Moon is Illuminated
Today
First Quarter
Oct 8
Full
Oct 15
Last Quarter
Oct 23
New
Oct 30
First Quarter

Today's Extremes

State Highs State Lows

Community

WunderPhotos

Upload Photos

1,758,147 photos uploaded!

WunderBlogs® & News

Nearby

Snow Depth

Station Depth Elevation
No new snow has been reported.

Earthquake Activity

City Distance Mag. Time & Date
No recent earthquake activity has been reported nearby.
Minimum magnitude displayed is 2.5.

Coastal Water Temperatures

Place Temperature
No Stations Reporting

Nearby Weather Stations